createdAt,value
2022-11-03T00:01:42.810Z,11.20
2022-11-03T00:04:44.922Z,11.73
2022-11-03T00:07:47.451Z,12.27
2022-11-03T00:10:49.426Z,11.67
2022-11-03T00:13:51.770Z,11.90
2022-11-03T00:16:54.150Z,11.43
2022-11-03T00:19:56.298Z,11.03
2022-11-03T00:22:58.204Z,9.93
2022-11-03T00:26:14.915Z,11.27
2022-11-03T00:29:16.848Z,11.37
2022-11-03T00:32:19.032Z,10.20
2022-11-03T00:35:20.878Z,10.93
2022-11-03T00:38:23.059Z,10.30
2022-11-03T00:41:26.804Z,8.57
2022-11-03T00:44:29.031Z,9.33
2022-11-03T00:47:30.919Z,9.87
2022-11-03T00:50:34.225Z,9.10
2022-11-03T00:53:52.839Z,9.60
2022-11-03T00:56:54.996Z,9.70
2022-11-03T00:59:56.841Z,8.73
2022-11-03T01:02:59.199Z,9.20
2022-11-03T01:06:20.524Z,9.23
2022-11-03T01:09:29.956Z,9.00
2022-11-03T01:12:31.860Z,8.43
2022-11-03T01:15:34.046Z,8.13
2022-11-03T01:18:36.025Z,7.97
2022-11-03T01:21:38.297Z,7.43
2022-11-03T01:24:41.663Z,7.57
2022-11-03T01:27:43.855Z,7.73
2022-11-03T01:30:45.802Z,7.93
2022-11-03T01:33:50.744Z,7.97
2022-11-03T01:36:52.656Z,7.00
2022-11-03T01:39:54.982Z,7.80
2022-11-03T01:43:22.348Z,7.97
2022-11-03T01:46:27.599Z,8.00
2022-11-03T01:49:32.078Z,7.30
2022-11-03T01:52:48.468Z,8.20
2022-11-03T01:55:51.802Z,8.43
2022-11-03T01:58:55.655Z,6.87
2022-11-03T02:01:57.749Z,7.50
2022-11-03T02:05:02.083Z,6.70
2022-11-03T02:08:13.666Z,7.70
2022-11-03T02:11:34.531Z,7.57
2022-11-03T02:14:43.044Z,7.70
2022-11-03T02:17:47.270Z,7.27
2022-11-03T02:20:57.782Z,6.83
2022-11-03T02:24:16.778Z,7.03
2022-11-03T02:27:20.188Z,6.60
2022-11-03T02:30:22.474Z,6.80
2022-11-03T02:33:43.461Z,6.43
2022-11-03T02:37:04.542Z,6.23
2022-11-03T02:40:16.983Z,6.70
2022-11-03T02:43:20.347Z,5.97
2022-11-03T02:46:25.707Z,6.57
2022-11-03T02:49:28.024Z,5.67
2022-11-03T02:52:47.684Z,6.53
2022-11-03T02:56:05.883Z,6.90
2022-11-03T02:59:15.659Z,6.47
2022-11-03T03:02:24.190Z,6.03
2022-11-03T03:05:31.513Z,6.40
2022-11-03T03:08:37.992Z,7.23
2022-11-03T03:11:43.546Z,10.60
2022-11-03T03:14:48.020Z,12.20
2022-11-03T03:17:54.800Z,7.20
2022-11-03T03:21:10.808Z,9.77
2022-11-03T03:24:21.494Z,10.77
2022-11-03T03:27:26.499Z,7.97
2022-11-03T03:30:31.011Z,7.83
2022-11-03T03:33:34.466Z,8.27
2022-11-03T03:36:39.959Z,7.53
2022-11-03T03:39:45.851Z,6.83
2022-11-03T03:42:49.262Z,7.17
2022-11-03T03:45:54.799Z,7.60
2022-11-03T03:48:56.795Z,6.93
2022-11-03T03:51:59.466Z,6.90
2022-11-03T03:55:01.400Z,7.30
2022-11-03T03:58:05.888Z,6.00
2022-11-03T04:01:12.335Z,6.20
2022-11-03T04:04:14.626Z,6.17
2022-11-03T04:07:40.744Z,6.33
2022-11-03T04:11:05.204Z,6.50
2022-11-03T04:14:26.997Z,5.90
2022-11-03T04:21:13.398Z,5.73
2022-11-03T04:24:15.563Z,5.27
2022-11-03T04:27:37.341Z,5.90
2022-11-03T04:30:40.053Z,6.27
2022-11-03T04:33:42.724Z,5.97
2022-11-03T04:36:44.876Z,5.60
2022-11-03T04:39:46.848Z,5.83
2022-11-03T04:42:49.117Z,6.30
2022-11-03T04:45:51.215Z,6.43
2022-11-03T04:48:55.249Z,6.87
2022-11-03T04:51:57.203Z,5.50
2022-11-03T04:54:59.578Z,5.43
2022-11-03T04:58:12.789Z,6.30
2022-11-03T05:01:23.788Z,5.53
2022-11-03T05:04:26.340Z,5.63
2022-11-03T05:07:33.498Z,6.07
2022-11-03T05:10:35.775Z,6.07
2022-11-03T05:13:38.142Z,6.53
2022-11-03T05:16:40.125Z,5.77
2022-11-03T05:19:42.905Z,9.10
2022-11-03T05:22:44.928Z,8.13
2022-11-03T05:25:53.285Z,9.03
2022-11-03T05:29:01.722Z,8.60
2022-11-03T05:32:24.621Z,9.87
2022-11-03T05:35:29.388Z,8.37
2022-11-03T05:38:33.145Z,7.53
2022-11-03T05:41:36.083Z,7.90
2022-11-03T05:44:40.761Z,8.30
2022-11-03T05:47:43.178Z,7.13
2022-11-03T05:50:45.539Z,7.23
2022-11-03T05:53:55.282Z,8.03
2022-11-03T05:56:57.498Z,7.27
2022-11-03T06:00:00.192Z,7.47
2022-11-03T06:03:02.542Z,6.13
2022-11-03T06:06:16.975Z,6.57
2022-11-03T06:09:22.679Z,6.20
2022-11-03T06:12:26.017Z,7.07
2022-11-03T06:15:34.776Z,7.27
2022-11-03T06:18:38.382Z,7.87
2022-11-03T06:21:44.533Z,7.87
2022-11-03T06:24:47.851Z,7.53
2022-11-03T06:27:50.528Z,7.67
2022-11-03T06:30:52.783Z,8.17
2022-11-03T06:33:57.335Z,7.70
2022-11-03T06:37:13.751Z,7.50
2022-11-03T06:40:15.796Z,8.20
2022-11-03T06:43:45.667Z,9.03
2022-11-03T06:46:47.611Z,7.40
2022-11-03T06:49:55.809Z,8.20
2022-11-03T06:52:59.400Z,8.63
2022-11-03T06:56:01.791Z,9.20
2022-11-03T06:59:03.712Z,9.03
2022-11-03T07:02:46.945Z,7.60
2022-11-03T07:05:48.927Z,8.27
2022-11-03T07:08:57.409Z,8.30
2022-11-03T07:12:00.758Z,8.70
2022-11-03T07:18:16.131Z,8.07
2022-11-03T07:21:44.751Z,8.20
2022-11-03T07:24:48.607Z,7.67
2022-11-03T07:27:53.974Z,7.60
2022-11-03T07:30:55.988Z,7.83
2022-11-03T07:33:58.979Z,8.23
2022-11-03T07:37:01.287Z,8.73
2022-11-03T07:40:03.814Z,8.30
2022-11-03T07:43:19.006Z,8.40
2022-11-03T07:46:22.703Z,17.33
2022-11-03T07:49:29.060Z,11.93
2022-11-03T07:52:31.596Z,9.67
2022-11-03T07:55:33.776Z,10.43
2022-11-03T07:58:39.014Z,9.90
2022-11-03T08:01:43.960Z,9.80
2022-11-03T08:04:46.348Z,10.17
2022-11-03T08:07:48.356Z,10.80
2022-11-03T08:10:50.710Z,10.30
2022-11-03T08:13:53.304Z,10.93
2022-11-03T08:16:55.521Z,11.40
2022-11-03T08:19:57.479Z,10.90
2022-11-03T08:23:24.123Z,10.77
2022-11-03T08:26:21.688Z,8.70
2022-11-03T08:29:27.203Z,9.57
2022-11-03T08:32:29.177Z,8.77
2022-11-03T08:35:34.056Z,8.90
2022-11-03T08:38:36.503Z,8.47
2022-11-03T08:41:38.756Z,8.80
2022-11-03T08:44:40.734Z,9.57
2022-11-03T08:47:42.880Z,10.13
2022-11-03T08:50:44.791Z,10.90
2022-11-03T08:53:50.605Z,12.37
2022-11-03T08:56:52.595Z,11.43
2022-11-03T08:59:56.150Z,10.90
2022-11-03T09:02:58.057Z,11.17
2022-11-03T09:06:00.276Z,10.87
2022-11-03T09:12:24.361Z,10.80
2022-11-03T09:15:26.408Z,10.93
2022-11-03T09:18:28.596Z,10.30
2022-11-03T09:21:30.748Z,10.10
2022-11-03T09:24:33.056Z,17.83
2022-11-03T09:27:34.924Z,9.90
2022-11-03T09:30:37.198Z,9.30
2022-11-03T09:33:39.264Z,8.57
2022-11-03T09:36:41.459Z,8.90
2022-11-03T09:39:44.080Z,8.07
2022-11-03T09:42:46.389Z,9.20
2022-11-03T09:45:48.322Z,7.70
2022-11-03T09:48:50.603Z,8.00
2022-11-03T09:51:54.123Z,7.73
2022-11-03T09:54:56.381Z,7.05
2022-11-03T09:58:01.591Z,7.78
2022-11-03T10:01:04.377Z,6.43
2022-11-03T10:04:06.323Z,6.70
2022-11-03T10:07:09.027Z,7.03
2022-11-03T10:10:21.649Z,7.50
2022-11-03T10:13:47.524Z,6.95
2022-11-03T10:16:57.433Z,6.22
2022-11-03T10:20:00.769Z,5.68
2022-11-03T10:23:02.656Z,6.13
2022-11-03T10:26:12.155Z,5.38
2022-11-03T10:32:33.578Z,5.57
2022-11-03T10:35:36.153Z,4.90
2022-11-03T10:38:38.356Z,5.30
2022-11-03T10:41:56.991Z,4.73
2022-11-03T10:45:20.279Z,4.30
2022-11-03T10:48:22.580Z,4.73
2022-11-03T10:51:24.817Z,4.07
2022-11-03T10:54:26.770Z,3.67
2022-11-03T10:57:29.057Z,3.42
2022-11-03T11:00:31.207Z,3.13
2022-11-03T11:03:38.905Z,3.60
2022-11-03T11:06:41.255Z,3.38
2022-11-03T11:09:43.448Z,3.67
2022-11-03T11:13:17.992Z,3.25
2022-11-03T11:16:50.662Z,4.07
2022-11-03T11:20:22.223Z,3.53
2022-11-03T11:23:27.645Z,3.90
2022-11-03T11:26:33.493Z,3.47
2022-11-03T11:29:36.248Z,3.13
2022-11-03T11:33:12.590Z,3.30
2022-11-03T11:36:24.327Z,3.13
2022-11-03T11:39:26.293Z,3.33
2022-11-03T11:42:29.713Z,3.10
2022-11-03T11:46:11.017Z,3.13
2022-11-03T11:49:13.131Z,3.17
2022-11-03T11:52:18.807Z,3.90
2022-11-03T11:55:45.165Z,19.52
2022-11-03T11:58:55.410Z,3.42
2022-11-03T12:01:59.108Z,3.47
2022-11-03T12:05:03.079Z,3.20
2022-11-03T12:08:19.084Z,2.97
2022-11-03T12:11:46.088Z,3.70
2022-11-03T12:14:49.245Z,3.30
2022-11-03T12:17:51.194Z,2.70
2022-11-03T12:20:53.714Z,3.33
2022-11-03T12:23:55.777Z,3.15
2022-11-03T12:26:59.458Z,3.42
2022-11-03T12:30:04.857Z,3.20
2022-11-03T12:33:07.358Z,2.58
2022-11-03T12:36:09.966Z,2.55
2022-11-03T12:39:12.777Z,2.33
2022-11-03T12:42:14.787Z,2.35
2022-11-03T12:45:17.050Z,1.95
2022-11-03T12:48:19.726Z,2.33
2022-11-03T12:51:24.116Z,2.85
2022-11-03T12:54:26.006Z,3.00
2022-11-03T12:57:28.440Z,3.03
2022-11-03T13:00:30.412Z,2.72
2022-11-03T13:03:34.174Z,2.40
2022-11-03T13:06:36.079Z,2.50
2022-11-03T13:09:38.227Z,2.67
2022-11-03T13:12:41.649Z,3.03
2022-11-03T13:15:44.878Z,3.22
2022-11-03T13:18:47.113Z,2.60
2022-11-03T13:21:49.268Z,3.00
2022-11-03T13:24:51.365Z,2.70
2022-11-03T13:27:57.086Z,2.40
2022-11-03T13:30:59.059Z,3.10
2022-11-03T13:34:01.200Z,2.45
2022-11-03T13:37:04.758Z,2.45
2022-11-03T13:40:07.768Z,2.80
2022-11-03T13:43:09.994Z,3.15
2022-11-03T13:46:12.983Z,2.88
2022-11-03T13:52:37.895Z,2.80
2022-11-03T14:05:28.932Z,2.90
2022-11-03T14:08:30.837Z,2.80
2022-11-03T14:11:51.897Z,3.75
2022-11-03T14:14:53.824Z,3.30
2022-11-03T14:17:56.044Z,3.15
2022-11-03T14:20:57.914Z,3.53
2022-11-03T14:24:00.161Z,3.50
2022-11-03T14:27:02.059Z,3.28
2022-11-03T14:30:05.254Z,3.70
2022-11-03T14:33:07.346Z,3.88
2022-11-03T14:36:09.774Z,7.95
2022-11-03T14:39:11.643Z,3.30
2022-11-03T14:42:17.368Z,3.40
2022-11-03T14:45:19.319Z,3.37
2022-11-03T14:48:21.558Z,3.67
2022-11-03T14:51:23.467Z,3.83
2022-11-03T14:54:26.367Z,3.77
2022-11-03T14:57:28.208Z,3.97
2022-11-03T15:00:30.474Z,4.90
2022-11-03T15:03:32.404Z,4.23
2022-11-03T15:06:35.862Z,3.90
2022-11-03T15:09:37.793Z,4.43
2022-11-03T15:12:40.160Z,4.37
2022-11-03T15:15:42.486Z,4.20
2022-11-03T15:18:45.191Z,4.13
2022-11-03T15:21:47.134Z,5.10
2022-11-03T15:28:13.868Z,4.50
2022-11-03T15:31:16.282Z,4.30
2022-11-03T15:34:18.395Z,4.50
2022-11-03T15:37:20.585Z,4.00
2022-11-03T15:40:22.615Z,5.17
2022-11-03T15:43:26.899Z,5.73
2022-11-03T15:46:28.810Z,5.70
2022-11-03T15:49:30.956Z,6.30
2022-11-03T15:52:33.111Z,5.70
2022-11-03T15:55:35.515Z,6.83
2022-11-03T15:58:38.142Z,6.97
2022-11-03T16:01:40.401Z,7.87
2022-11-03T16:04:42.496Z,11.67
2022-11-03T16:07:44.685Z,14.50
2022-11-03T16:10:54.711Z,15.80
2022-11-03T16:14:00.024Z,15.93
2022-11-03T16:17:02.010Z,17.47
2022-11-03T16:20:04.518Z,15.57
2022-11-03T16:23:06.553Z,14.83
2022-11-03T16:26:09.141Z,14.13
2022-11-03T16:29:11.036Z,17.10
2022-11-03T16:32:13.226Z,17.93
2022-11-03T16:35:15.248Z,21.40
2022-11-03T16:38:17.424Z,20.10
2022-11-03T16:41:19.408Z,19.03
2022-11-03T16:44:21.605Z,17.13
2022-11-03T16:47:25.319Z,18.03
2022-11-03T16:50:27.629Z,17.57
2022-11-03T16:53:29.536Z,17.90
2022-11-03T16:56:31.737Z,17.63
2022-11-03T16:59:33.711Z,18.10
2022-11-03T17:02:36.022Z,17.77
2022-11-03T17:05:48.546Z,17.30
2022-11-03T17:08:57.813Z,16.50
2022-11-03T17:11:59.756Z,15.70
2022-11-03T17:15:01.933Z,16.00
2022-11-03T17:18:04.259Z,15.27
2022-11-03T17:21:06.569Z,13.63
2022-11-03T17:24:11.242Z,11.97
2022-11-03T17:27:24.312Z,11.50
2022-11-03T17:30:28.824Z,10.40
2022-11-03T17:33:38.620Z,10.50
2022-11-03T17:36:41.019Z,10.47
2022-11-03T17:39:44.396Z,9.80
2022-11-03T17:42:46.619Z,10.40
2022-11-03T17:45:49.269Z,11.27
2022-11-03T17:48:51.284Z,10.03
2022-11-03T17:51:53.780Z,10.40
2022-11-03T17:54:58.404Z,11.53
2022-11-03T17:58:02.486Z,11.87
2022-11-03T18:01:05.919Z,11.33
2022-11-03T18:07:29.439Z,10.30
2022-11-03T18:10:34.341Z,11.40
2022-11-03T18:13:36.924Z,10.00
2022-11-03T18:16:40.589Z,10.17
2022-11-03T18:19:42.470Z,8.87
2022-11-03T18:22:45.336Z,8.50
2022-11-03T18:25:48.653Z,7.47
2022-11-03T18:28:51.630Z,8.03
2022-11-03T18:31:54.133Z,7.53
2022-11-03T18:34:56.891Z,8.10
2022-11-03T18:37:59.103Z,8.10
2022-11-03T18:41:01.718Z,8.43
2022-11-03T18:44:18.404Z,8.00
2022-11-03T18:47:20.570Z,9.43
2022-11-03T18:50:22.549Z,8.67
2022-11-03T18:53:26.274Z,10.43
2022-11-03T18:56:28.436Z,10.00
2022-11-03T18:59:33.375Z,9.47
2022-11-03T19:02:35.729Z,10.57
2022-11-03T19:05:38.793Z,9.43
2022-11-03T19:08:47.919Z,9.70
2022-11-03T19:11:57.847Z,10.10
2022-11-03T19:15:00.292Z,9.80
2022-11-03T19:18:05.426Z,9.50
2022-11-03T19:21:16.181Z,9.50
2022-11-03T19:24:18.424Z,10.53
2022-11-03T19:27:28.612Z,9.90
2022-11-03T19:30:31.416Z,10.03
2022-11-03T19:33:33.744Z,9.13
2022-11-03T19:36:36.189Z,10.57
2022-11-03T19:39:41.242Z,10.20
2022-11-03T19:42:44.985Z,11.07
2022-11-03T19:45:48.307Z,11.17
2022-11-03T19:48:52.925Z,11.93
2022-11-03T19:51:55.684Z,10.90
2022-11-03T19:55:00.612Z,10.40
2022-11-03T19:58:17.728Z,11.53
2022-11-03T20:01:20.629Z,11.97
2022-11-03T20:04:22.947Z,10.73
2022-11-03T20:07:31.445Z,10.67
2022-11-03T20:10:36.188Z,11.70
2022-11-03T20:13:44.932Z,11.37
2022-11-03T20:16:47.093Z,11.13
2022-11-03T20:19:49.613Z,12.40
2022-11-03T20:22:57.758Z,11.93
2022-11-03T20:26:01.629Z,12.70
2022-11-03T20:29:03.848Z,12.00
2022-11-03T20:32:07.373Z,12.40
2022-11-03T20:35:21.580Z,11.50
2022-11-03T20:38:27.748Z,11.87
2022-11-03T20:41:31.215Z,12.27
2022-11-03T20:44:33.625Z,12.33
2022-11-03T20:47:35.766Z,12.67
2022-11-03T20:50:39.811Z,12.87
2022-11-03T20:53:44.676Z,11.87
2022-11-03T20:56:48.140Z,13.03
2022-11-03T20:59:50.066Z,12.83
2022-11-03T21:02:53.070Z,13.33
2022-11-03T21:05:55.026Z,12.73
2022-11-03T21:08:57.974Z,12.47
2022-11-03T21:11:59.928Z,12.30
2022-11-03T21:15:20.640Z,12.70
2022-11-03T21:18:41.216Z,13.00
2022-11-03T21:21:43.662Z,13.60
2022-11-03T21:24:45.887Z,13.40
2022-11-03T21:27:49.649Z,12.50
2022-11-03T21:30:53.880Z,11.80
2022-11-03T21:33:56.138Z,13.07
2022-11-03T21:36:58.085Z,12.97
2022-11-03T21:40:00.259Z,13.07
2022-11-03T21:43:21.130Z,12.77
2022-11-03T21:46:23.288Z,12.93
2022-11-03T21:49:43.608Z,13.90
2022-11-03T21:52:45.881Z,12.10
2022-11-03T21:55:49.372Z,12.40
2022-11-03T21:58:51.565Z,12.60
2022-11-03T22:01:55.161Z,12.90
2022-11-03T22:04:57.840Z,11.50
2022-11-03T22:08:00.036Z,12.13
2022-11-03T22:11:21.642Z,12.60
2022-11-03T22:14:23.543Z,12.87
2022-11-03T22:17:25.818Z,12.73
2022-11-03T22:20:46.480Z,13.13
2022-11-03T22:24:14.785Z,12.93
2022-11-03T22:27:16.807Z,12.60
2022-11-03T22:30:37.813Z,12.53
2022-11-03T22:33:58.130Z,14.37
2022-11-03T22:37:00.299Z,13.43
2022-11-03T22:40:20.741Z,12.43
2022-11-03T22:43:42.771Z,12.93
2022-11-03T22:46:44.654Z,13.27
2022-11-03T22:49:46.839Z,12.73
2022-11-03T22:52:48.741Z,14.27
2022-11-03T22:55:51.438Z,14.43
2022-11-03T22:58:53.596Z,13.77
2022-11-03T23:01:55.874Z,15.60
2022-11-03T23:04:57.897Z,16.93
2022-11-03T23:08:00.138Z,19.27
2022-11-03T23:11:17.514Z,21.77
2022-11-03T23:14:20.997Z,20.40
2022-11-03T23:17:42.808Z,20.90
2022-11-03T23:21:03.756Z,18.17
2022-11-03T23:24:24.852Z,19.87
2022-11-03T23:27:27.415Z,18.83
2022-11-03T23:30:29.328Z,17.90
2022-11-03T23:33:31.807Z,18.40
2022-11-03T23:36:33.686Z,17.47
2022-11-03T23:39:35.871Z,17.23
2022-11-03T23:42:37.755Z,16.20
2022-11-03T23:45:58.618Z,15.53
2022-11-03T23:49:00.509Z,15.20
2022-11-03T23:52:02.787Z,15.10
2022-11-03T23:55:05.236Z,13.53
2022-11-03T23:58:20.637Z,14.13
